createdAt,value
2022-11-23T00:00:52.141Z,1.89
2022-11-23T00:02:23.428Z,1.71
2022-11-23T00:03:54.685Z,1.82
2022-11-23T00:05:26.351Z,1.66
2022-11-23T00:06:58.054Z,1.64
2022-11-23T00:08:29.317Z,1.73
2022-11-23T00:10:00.831Z,1.75
2022-11-23T00:11:32.095Z,1.67
2022-11-23T00:13:03.567Z,1.99
2022-11-23T00:14:34.952Z,2.14
2022-11-23T00:16:06.405Z,1.64
2022-11-23T00:17:37.852Z,1.96
2022-11-23T00:19:09.251Z,1.88
2022-11-23T00:20:40.503Z,2.34
2022-11-23T00:22:11.673Z,1.90
2022-11-23T00:23:43.360Z,2.01
2022-11-23T00:25:14.807Z,2.06
2022-11-23T00:26:46.041Z,1.88
2022-11-23T00:28:17.294Z,2.01
2022-11-23T00:29:49.097Z,1.88
2022-11-23T00:31:20.374Z,1.77
2022-11-23T00:32:53.027Z,1.87
2022-11-23T00:34:24.208Z,1.88
2022-11-23T00:35:55.431Z,1.88
2022-11-23T00:37:26.838Z,1.85
2022-11-23T00:38:58.101Z,1.88
2022-11-23T00:40:29.377Z,1.88
2022-11-23T00:42:00.869Z,2.37
2022-11-23T00:43:33.359Z,2.19
2022-11-23T00:45:04.654Z,1.70
2022-11-23T00:46:36.070Z,1.94
2022-11-23T00:48:07.308Z,1.95
2022-11-23T00:49:38.624Z,1.61
2022-11-23T00:51:10.200Z,1.80
2022-11-23T00:52:41.539Z,1.98
2022-11-23T00:54:12.778Z,2.02
2022-11-23T00:55:44.507Z,1.87
2022-11-23T00:57:15.765Z,1.87
2022-11-23T00:58:47.153Z,1.84
2022-11-23T01:00:18.523Z,1.66
2022-11-23T01:01:50.005Z,1.85
2022-11-23T01:03:21.488Z,2.00
2022-11-23T01:04:52.785Z,1.75
2022-11-23T01:06:24.033Z,1.87
2022-11-23T01:07:55.354Z,1.93
2022-11-23T01:09:26.727Z,1.93
2022-11-23T01:10:58.008Z,1.82
2022-11-23T01:12:29.393Z,1.53
2022-11-23T01:14:00.897Z,1.63
2022-11-23T01:15:32.276Z,1.70
2022-11-23T01:17:03.563Z,2.09
2022-11-23T01:18:34.918Z,1.83
2022-11-23T01:20:06.122Z,1.66
2022-11-23T01:21:37.335Z,1.58
2022-11-23T01:23:08.569Z,1.74
2022-11-23T01:24:39.911Z,2.03
2022-11-23T01:26:11.262Z,1.68
2022-11-23T01:27:42.697Z,1.79
2022-11-23T01:29:13.972Z,1.61
2022-11-23T01:30:45.262Z,1.59
2022-11-23T01:32:16.526Z,1.70
2022-11-23T01:33:48.061Z,1.76
2022-11-23T01:35:19.389Z,1.79
2022-11-23T01:36:50.584Z,1.89
2022-11-23T01:38:21.895Z,2.06
2022-11-23T01:39:53.276Z,1.82
2022-11-23T01:41:24.803Z,1.73
2022-11-23T01:42:56.170Z,1.67
2022-11-23T01:44:27.478Z,1.83
2022-11-23T01:45:58.724Z,1.76
2022-11-23T01:47:30.033Z,1.78
2022-11-23T01:49:01.344Z,1.76
2022-11-23T01:50:32.726Z,1.74
2022-11-23T01:52:04.075Z,1.87
2022-11-23T01:53:35.409Z,1.91
2022-11-23T01:55:08.641Z,1.70
2022-11-23T01:56:40.166Z,1.56
2022-11-23T01:58:11.399Z,1.68
2022-11-23T01:59:43.125Z,1.62
2022-11-23T02:01:14.453Z,1.76
2022-11-23T02:02:45.967Z,2.12
2022-11-23T02:04:17.188Z,1.97
2022-11-23T02:05:48.485Z,1.77
2022-11-23T02:07:19.876Z,1.49
2022-11-23T02:08:51.228Z,1.56
2022-11-23T02:10:22.479Z,1.67
2022-11-23T02:11:54.208Z,1.85
2022-11-23T02:13:25.475Z,1.65
2022-11-23T02:14:56.968Z,1.52
2022-11-23T02:16:28.324Z,1.60
2022-11-23T02:17:59.520Z,1.65
2022-11-23T02:19:31.087Z,1.54
2022-11-23T02:21:02.439Z,1.64
2022-11-23T02:22:33.771Z,1.43
2022-11-23T02:24:05.132Z,1.77
2022-11-23T02:25:41.426Z,1.61
2022-11-23T02:27:13.063Z,1.51
2022-11-23T02:28:44.317Z,1.41
2022-11-23T02:30:15.689Z,1.62
2022-11-23T02:31:47.351Z,1.56
2022-11-23T02:33:18.856Z,1.86
2022-11-23T02:34:50.206Z,1.73
2022-11-23T02:36:21.424Z,1.89
2022-11-23T02:37:52.976Z,1.46
2022-11-23T02:39:24.237Z,1.62
2022-11-23T02:40:55.512Z,1.68
2022-11-23T02:42:26.979Z,1.82
2022-11-23T02:43:58.380Z,1.69
2022-11-23T02:45:29.689Z,1.75
2022-11-23T02:47:01.022Z,1.70
2022-11-23T02:48:32.379Z,1.46
2022-11-23T02:50:03.602Z,1.52
2022-11-23T02:51:34.945Z,1.56
2022-11-23T02:53:06.285Z,1.46
2022-11-23T02:54:37.524Z,1.56
2022-11-23T02:56:09.090Z,1.54
2022-11-23T02:57:40.437Z,1.39
2022-11-23T02:59:11.757Z,1.60
2022-11-23T03:00:43.021Z,1.56
2022-11-23T03:02:14.237Z,1.62
2022-11-23T03:03:45.451Z,1.44
2022-11-23T03:05:16.732Z,1.52
2022-11-23T03:06:48.332Z,1.44
2022-11-23T03:08:19.620Z,1.60
2022-11-23T03:09:51.145Z,1.37
2022-11-23T03:11:22.503Z,1.50
2022-11-23T03:12:53.996Z,1.52
2022-11-23T03:14:25.716Z,1.36
2022-11-23T03:15:57.073Z,1.64
2022-11-23T03:17:28.378Z,1.63
2022-11-23T03:18:59.656Z,1.73
2022-11-23T03:20:30.935Z,1.66
2022-11-23T03:22:02.397Z,1.63
2022-11-23T03:23:33.723Z,1.57
2022-11-23T03:25:05.038Z,1.41
2022-11-23T03:26:36.414Z,1.52
2022-11-23T03:28:07.761Z,1.50
2022-11-23T03:29:39.054Z,1.68
2022-11-23T03:31:10.333Z,1.66
2022-11-23T03:32:41.632Z,1.50
2022-11-23T03:34:12.797Z,1.87
2022-11-23T03:35:44.039Z,1.65
2022-11-23T03:37:15.458Z,1.95
2022-11-23T03:38:46.804Z,1.82
2022-11-23T03:40:18.099Z,1.68
2022-11-23T03:41:49.379Z,1.44
2022-11-23T03:43:20.671Z,1.77
2022-11-23T03:44:51.981Z,1.69
2022-11-23T03:46:23.396Z,1.56
2022-11-23T03:47:54.857Z,1.62
2022-11-23T03:49:26.223Z,1.54
2022-11-23T03:50:57.521Z,1.48
2022-11-23T03:52:28.990Z,1.72
2022-11-23T03:54:00.465Z,1.68
2022-11-23T03:55:31.786Z,1.64
2022-11-23T03:57:03.119Z,1.59
2022-11-23T03:58:34.358Z,1.50
2022-11-23T04:00:05.708Z,1.79
2022-11-23T04:01:36.999Z,1.53
2022-11-23T04:03:08.466Z,1.43
2022-11-23T04:04:39.816Z,1.41
2022-11-23T04:06:11.098Z,1.46
2022-11-23T04:07:42.414Z,1.52
2022-11-23T04:09:13.691Z,1.46
2022-11-23T04:10:45.042Z,1.52
2022-11-23T04:12:16.463Z,1.60
2022-11-23T04:13:47.768Z,1.50
2022-11-23T04:15:19.262Z,1.46
2022-11-23T04:16:50.553Z,1.26
2022-11-23T04:18:21.834Z,1.40
2022-11-23T04:19:53.209Z,1.24
2022-11-23T04:21:24.432Z,1.42
2022-11-23T04:22:55.699Z,1.46
2022-11-23T04:24:27.021Z,1.41
2022-11-23T04:25:58.352Z,1.28
2022-11-23T04:27:29.597Z,1.22
2022-11-23T04:29:02.159Z,1.30
2022-11-23T04:30:33.371Z,1.48
2022-11-23T04:32:04.611Z,1.16
2022-11-23T04:33:35.826Z,1.20
2022-11-23T04:35:07.005Z,1.10
2022-11-23T04:36:38.478Z,1.27
2022-11-23T04:38:09.750Z,1.29
2022-11-23T04:39:41.068Z,1.34
2022-11-23T04:41:12.313Z,1.41
2022-11-23T04:42:43.540Z,1.18
2022-11-23T04:44:14.818Z,1.17
2022-11-23T04:45:46.197Z,1.27
2022-11-23T04:47:17.885Z,1.29
2022-11-23T04:48:50.556Z,1.14
2022-11-23T04:50:22.268Z,1.34
2022-11-23T04:51:53.631Z,1.30
2022-11-23T04:53:24.907Z,1.38
2022-11-23T04:54:56.315Z,1.34
2022-11-23T04:56:28.079Z,1.36
2022-11-23T04:57:59.363Z,1.26
2022-11-23T04:59:30.888Z,1.24
2022-11-23T05:01:02.384Z,1.37
2022-11-23T05:02:33.742Z,1.43
2022-11-23T05:04:05.290Z,1.27
2022-11-23T05:05:36.508Z,1.26
2022-11-23T05:07:07.857Z,1.38
2022-11-23T05:08:39.403Z,1.57
2022-11-23T05:10:10.621Z,1.38
2022-11-23T05:11:41.856Z,1.46
2022-11-23T05:13:13.200Z,1.57
2022-11-23T05:14:44.633Z,1.32
2022-11-23T05:16:15.923Z,1.43
2022-11-23T05:17:47.197Z,1.51
2022-11-23T05:19:18.493Z,1.57
2022-11-23T05:20:49.762Z,1.55
2022-11-23T05:22:21.168Z,1.36
2022-11-23T05:23:52.460Z,1.67
2022-11-23T05:25:23.751Z,1.73
2022-11-23T05:26:56.420Z,1.52
2022-11-23T05:28:40.125Z,1.78
2022-11-23T05:30:11.981Z,1.70
2022-11-23T05:31:43.597Z,1.82
2022-11-23T05:33:14.974Z,1.60
2022-11-23T05:34:46.260Z,1.75
2022-11-23T05:36:17.556Z,1.78
2022-11-23T05:37:49.071Z,1.53
2022-11-23T05:39:25.463Z,1.82
2022-11-23T05:40:56.848Z,1.94
2022-11-23T05:42:28.036Z,1.91
2022-11-23T05:43:59.347Z,2.17
2022-11-23T05:45:30.618Z,1.93
2022-11-23T05:47:01.940Z,1.94
2022-11-23T05:48:33.410Z,1.95
2022-11-23T05:50:04.738Z,1.99
2022-11-23T05:51:36.090Z,1.80
2022-11-23T05:53:07.544Z,1.64
2022-11-23T05:54:38.852Z,1.85
2022-11-23T05:56:10.316Z,1.91
2022-11-23T05:57:41.510Z,2.00
2022-11-23T05:59:13.002Z,1.73
2022-11-23T06:01:20.699Z,1.84
2022-11-23T06:02:55.393Z,1.67
2022-11-23T06:04:26.773Z,1.87
2022-11-23T06:05:58.101Z,1.74
2022-11-23T06:07:29.584Z,1.65
2022-11-23T06:09:01.365Z,1.94
2022-11-23T06:10:32.592Z,1.83
2022-11-23T06:12:03.847Z,1.73
2022-11-23T06:13:37.246Z,1.81
2022-11-23T06:15:08.711Z,1.90
2022-11-23T06:16:40.048Z,1.98
2022-11-23T06:18:11.425Z,1.93
2022-11-23T06:19:42.715Z,1.77
2022-11-23T06:21:13.989Z,1.92
2022-11-23T06:22:45.286Z,1.99
2022-11-23T06:24:16.559Z,1.98
2022-11-23T06:25:47.851Z,1.68
2022-11-23T06:27:19.152Z,1.88
2022-11-23T06:28:50.440Z,1.88
2022-11-23T06:30:21.684Z,1.80
2022-11-23T06:31:52.881Z,1.92
2022-11-23T06:33:44.102Z,1.86
2022-11-23T06:35:16.077Z,1.65
2022-11-23T06:36:47.357Z,1.77
2022-11-23T06:38:18.701Z,1.62
2022-11-23T06:39:50.156Z,1.82
2022-11-23T06:41:22.241Z,1.59
2022-11-23T06:42:53.551Z,1.81
2022-11-23T06:44:24.838Z,1.67
2022-11-23T06:45:56.039Z,1.59
2022-11-23T06:47:27.354Z,1.68
2022-11-23T06:48:58.736Z,1.55
2022-11-23T06:50:30.108Z,1.63
2022-11-23T06:52:01.516Z,1.93
2022-11-23T06:53:37.898Z,1.71
2022-11-23T06:55:09.265Z,1.88
2022-11-23T06:56:40.570Z,1.93
2022-11-23T06:58:11.972Z,1.91
2022-11-23T06:59:44.785Z,1.94
2022-11-23T07:01:16.997Z,1.80
2022-11-23T07:02:48.347Z,1.90
2022-11-23T07:04:19.625Z,1.86
2022-11-23T07:05:50.902Z,1.63
2022-11-23T07:07:22.442Z,1.74
2022-11-23T07:08:53.888Z,2.07
2022-11-23T07:10:25.383Z,1.98
2022-11-23T07:11:56.667Z,1.70
2022-11-23T07:13:28.075Z,1.61
2022-11-23T07:14:59.451Z,1.80
2022-11-23T07:16:30.730Z,1.96
2022-11-23T07:18:02.009Z,2.20
2022-11-23T07:19:33.606Z,2.04
2022-11-23T07:21:05.106Z,1.68
2022-11-23T07:22:36.397Z,1.79
2022-11-23T07:24:07.875Z,1.71
2022-11-23T07:25:39.237Z,1.78
2022-11-23T07:27:10.431Z,1.93
2022-11-23T07:28:41.736Z,2.03
2022-11-23T07:30:13.006Z,1.82
2022-11-23T07:31:44.324Z,1.86
2022-11-23T07:33:15.853Z,1.84
2022-11-23T07:34:47.745Z,1.89
2022-11-23T07:36:19.170Z,1.59
2022-11-23T07:37:50.501Z,1.82
2022-11-23T07:39:36.440Z,1.71
2022-11-23T07:41:20.411Z,1.86
2022-11-23T07:42:51.734Z,1.77
2022-11-23T07:44:22.996Z,1.73
2022-11-23T07:45:54.385Z,2.01
2022-11-23T07:47:25.795Z,2.03
2022-11-23T07:48:57.156Z,1.91
2022-11-23T07:50:28.460Z,1.94
2022-11-23T07:51:59.774Z,1.80
2022-11-23T07:53:36.137Z,2.06
2022-11-23T07:55:07.335Z,1.94
2022-11-23T07:56:38.620Z,2.14
2022-11-23T07:58:10.000Z,1.75
2022-11-23T07:59:41.279Z,2.02
2022-11-23T08:01:12.507Z,1.91
2022-11-23T08:03:04.307Z,1.75
2022-11-23T08:04:43.019Z,2.12
2022-11-23T08:06:14.430Z,2.22
2022-11-23T08:07:46.047Z,1.91
2022-11-23T08:09:17.432Z,2.06
2022-11-23T08:10:53.442Z,1.98
2022-11-23T08:12:25.617Z,1.88
2022-11-23T08:13:57.001Z,1.78
2022-11-23T08:15:28.313Z,2.34
2022-11-23T08:16:59.908Z,1.87
2022-11-23T08:18:31.347Z,1.78
2022-11-23T08:20:02.697Z,2.00
2022-11-23T08:21:34.008Z,2.05
2022-11-23T08:23:05.450Z,2.11
2022-11-23T08:24:36.686Z,2.34
2022-11-23T08:26:13.414Z,2.09
2022-11-23T08:27:45.239Z,2.11
2022-11-23T08:29:16.720Z,1.92
2022-11-23T08:30:48.260Z,1.70
2022-11-23T08:32:19.492Z,1.94
2022-11-23T08:33:50.863Z,2.00
2022-11-23T08:35:22.200Z,1.68
2022-11-23T08:36:53.444Z,1.77
2022-11-23T08:38:24.667Z,2.18
2022-11-23T08:39:55.951Z,1.87
2022-11-23T08:41:27.332Z,2.07
2022-11-23T08:42:58.816Z,2.02
2022-11-23T08:44:30.834Z,2.02
2022-11-23T08:46:06.742Z,1.96
2022-11-23T08:47:40.831Z,2.04
2022-11-23T08:49:12.066Z,2.11
2022-11-23T08:50:43.285Z,1.63
2022-11-23T08:52:14.590Z,1.90
2022-11-23T08:53:46.927Z,1.74
2022-11-23T08:55:18.399Z,1.86
2022-11-23T08:56:51.085Z,1.96
2022-11-23T08:58:22.300Z,2.03
2022-11-23T08:59:53.658Z,2.16
2022-11-23T09:01:24.916Z,2.15
2022-11-23T09:02:56.473Z,2.53
2022-11-23T09:04:27.868Z,2.17
2022-11-23T09:05:59.277Z,1.86
2022-11-23T09:07:30.675Z,1.87
2022-11-23T09:09:01.972Z,2.03
2022-11-23T09:10:33.270Z,1.91
2022-11-23T09:12:04.537Z,1.79
2022-11-23T09:13:36.860Z,2.16
2022-11-23T09:15:08.322Z,2.16
2022-11-23T09:16:39.537Z,2.05
2022-11-23T09:18:10.910Z,2.14
2022-11-23T09:19:42.182Z,2.25
2022-11-23T09:21:13.482Z,2.38
2022-11-23T09:22:44.757Z,2.48
2022-11-23T09:24:16.122Z,2.03
2022-11-23T09:25:47.752Z,2.19
2022-11-23T09:27:19.091Z,2.03
2022-11-23T09:28:50.390Z,2.33
2022-11-23T09:30:21.778Z,2.38
2022-11-23T09:31:53.458Z,2.53
2022-11-23T09:33:25.145Z,2.41
2022-11-23T09:34:56.592Z,1.90
2022-11-23T09:36:32.973Z,2.11
2022-11-23T09:38:04.444Z,2.39
2022-11-23T09:39:35.752Z,2.06
2022-11-23T09:41:07.131Z,2.06
2022-11-23T09:42:38.366Z,1.96
2022-11-23T09:44:11.059Z,1.93
2022-11-23T09:45:42.484Z,2.28
2022-11-23T09:47:13.757Z,2.34
2022-11-23T09:48:45.277Z,2.10
2022-11-23T09:50:16.665Z,2.42
2022-11-23T09:51:48.262Z,2.26
2022-11-23T09:53:19.579Z,2.20
2022-11-23T09:54:50.871Z,2.28
2022-11-23T09:56:22.473Z,1.94
2022-11-23T09:57:54.193Z,2.44
2022-11-23T09:59:25.703Z,2.22
2022-11-23T10:00:57.077Z,2.00
2022-11-23T10:04:59.956Z,2.33
2022-11-23T10:06:31.257Z,2.32
2022-11-23T10:08:02.530Z,2.35
2022-11-23T10:09:33.743Z,2.43
2022-11-23T10:11:05.431Z,2.65
2022-11-23T10:12:39.856Z,2.09
2022-11-23T10:14:11.623Z,1.90
2022-11-23T10:15:47.949Z,2.16
2022-11-23T10:17:19.334Z,2.61
2022-11-23T10:18:50.758Z,2.10
2022-11-23T10:20:22.013Z,2.65
2022-11-23T10:21:53.361Z,2.30
2022-11-23T10:23:24.630Z,2.15
2022-11-23T10:24:55.928Z,2.62
2022-11-23T10:26:27.174Z,2.30
2022-11-23T10:27:59.073Z,2.35
2022-11-23T10:29:30.393Z,2.44
2022-11-23T10:31:01.646Z,2.35
2022-11-23T10:32:32.901Z,2.54
2022-11-23T10:34:04.212Z,2.51
2022-11-23T10:35:35.527Z,2.35
2022-11-23T10:37:06.825Z,2.52
2022-11-23T10:38:38.365Z,2.13
2022-11-23T10:40:09.649Z,2.34
2022-11-23T10:41:40.997Z,3.02
2022-11-23T10:43:12.305Z,2.62
2022-11-23T10:44:43.562Z,2.51
2022-11-23T10:46:14.986Z,2.57
2022-11-23T10:47:46.719Z,2.53
2022-11-23T10:49:18.070Z,2.03
2022-11-23T10:50:49.520Z,2.19
2022-11-23T10:52:20.852Z,2.63
2022-11-23T10:53:52.165Z,2.32
2022-11-23T10:55:23.612Z,1.98
2022-11-23T10:56:55.026Z,2.33
2022-11-23T10:58:27.573Z,2.64
2022-11-23T10:59:59.147Z,2.58
2022-11-23T11:01:30.613Z,2.05
2022-11-23T11:03:03.068Z,1.94
2022-11-23T11:04:34.959Z,2.32
2022-11-23T11:06:09.509Z,2.66
2022-11-23T11:07:41.497Z,2.47
2022-11-23T11:09:13.682Z,2.11
2022-11-23T11:10:45.235Z,2.13
2022-11-23T11:12:16.667Z,2.18
2022-11-23T11:13:48.114Z,2.40
2022-11-23T11:15:19.390Z,1.86
2022-11-23T11:16:50.774Z,2.26
2022-11-23T11:18:22.148Z,2.02
2022-11-23T11:19:53.641Z,2.01
2022-11-23T11:21:25.101Z,2.42
2022-11-23T11:22:56.462Z,2.20
2022-11-23T11:24:29.012Z,2.65
2022-11-23T11:26:00.439Z,2.30
2022-11-23T11:27:31.736Z,2.52
2022-11-23T11:29:03.074Z,2.23
2022-11-23T11:30:34.369Z,2.35
2022-11-23T11:32:05.917Z,2.29
2022-11-23T11:33:37.236Z,2.25
2022-11-23T11:35:08.475Z,1.98
2022-11-23T11:36:39.916Z,2.06
2022-11-23T11:38:11.478Z,2.11
2022-11-23T11:39:42.811Z,2.08
2022-11-23T11:41:14.240Z,2.19
2022-11-23T11:42:45.711Z,2.03
2022-11-23T11:44:17.395Z,2.14
2022-11-23T11:46:21.270Z,2.06
2022-11-23T11:47:59.145Z,2.47
2022-11-23T11:49:30.512Z,2.42
2022-11-23T11:51:01.940Z,2.25
2022-11-23T11:52:33.272Z,2.34
2022-11-23T11:54:04.901Z,2.52
2022-11-23T11:55:36.400Z,2.24
2022-11-23T11:57:07.760Z,2.70
2022-11-23T11:58:42.980Z,2.37
2022-11-23T12:00:14.511Z,2.14
2022-11-23T12:01:46.036Z,2.28
2022-11-23T12:03:17.560Z,2.16
2022-11-23T12:04:49.008Z,1.89
2022-11-23T12:06:26.304Z,2.14
2022-11-23T12:07:58.046Z,2.27
2022-11-23T12:09:29.663Z,2.23
2022-11-23T12:11:01.088Z,2.25
2022-11-23T12:12:32.461Z,2.23
2022-11-23T12:14:03.829Z,2.29
2022-11-23T12:17:32.332Z,2.08
2022-11-23T12:19:04.412Z,2.41
2022-11-23T12:20:35.857Z,2.04
2022-11-23T12:22:07.182Z,2.30
2022-11-23T12:23:38.765Z,2.28
2022-11-23T12:25:10.286Z,2.37
2022-11-23T12:26:41.666Z,2.33
2022-11-23T12:28:18.046Z,2.18
2022-11-23T12:29:49.346Z,2.10
2022-11-23T12:31:20.740Z,2.41
2022-11-23T12:32:52.120Z,2.05
2022-11-23T12:34:23.629Z,2.28
2022-11-23T12:35:55.041Z,2.36
2022-11-23T12:37:26.395Z,2.19
2022-11-23T12:38:57.953Z,2.09
2022-11-23T12:40:29.376Z,2.25
2022-11-23T12:42:00.857Z,2.26
2022-11-23T12:43:36.598Z,2.50
2022-11-23T12:45:08.300Z,2.33
2022-11-23T12:46:39.803Z,1.98
2022-11-23T12:48:11.146Z,2.18
2022-11-23T12:49:42.610Z,2.08
2022-11-23T12:51:13.927Z,2.22
2022-11-23T12:52:45.284Z,2.45
2022-11-23T12:54:16.948Z,2.76
2022-11-23T12:55:48.633Z,2.42
2022-11-23T12:57:20.012Z,2.39
2022-11-23T12:58:51.388Z,2.29
2022-11-23T13:00:22.672Z,2.06
2022-11-23T13:01:54.230Z,2.20
2022-11-23T13:03:25.857Z,2.14
2022-11-23T13:04:57.217Z,2.42
2022-11-23T13:06:28.566Z,2.26
2022-11-23T13:08:00.071Z,2.22
2022-11-23T13:09:31.389Z,2.27
2022-11-23T13:11:02.749Z,2.04
2022-11-23T13:12:34.113Z,2.03
2022-11-23T13:14:05.453Z,2.19
2022-11-23T13:15:36.805Z,2.20
2022-11-23T13:17:08.294Z,2.36
2022-11-23T13:20:36.212Z,2.46
2022-11-23T13:22:27.795Z,2.28
2022-11-23T13:24:14.249Z,2.40
2022-11-23T13:25:45.701Z,2.27
2022-11-23T13:27:17.173Z,2.32
2022-11-23T13:28:48.648Z,2.28
2022-11-23T13:32:27.073Z,2.10
2022-11-23T13:34:03.596Z,2.05
2022-11-23T13:35:34.965Z,2.34
2022-11-23T13:37:13.574Z,2.38
2022-11-23T13:38:45.237Z,2.35
2022-11-23T13:40:16.678Z,2.15
2022-11-23T13:41:48.009Z,2.66
2022-11-23T13:45:45.270Z,2.29
2022-11-23T13:47:16.571Z,2.20
2022-11-23T13:48:56.690Z,2.31
2022-11-23T13:50:28.440Z,2.22
2022-11-23T13:51:59.784Z,2.18
2022-11-23T13:53:31.096Z,2.25
2022-11-23T13:55:07.496Z,2.07
2022-11-23T13:56:40.873Z,1.97
2022-11-23T13:58:12.174Z,2.19
2022-11-23T13:59:43.557Z,2.17
2022-11-23T14:01:15.102Z,2.22
2022-11-23T14:02:46.813Z,2.21
2022-11-23T14:04:18.257Z,2.14
2022-11-23T14:05:49.707Z,2.16
2022-11-23T14:07:21.061Z,2.13
2022-11-23T14:08:52.427Z,2.02
2022-11-23T14:10:23.769Z,2.38
2022-11-23T14:11:55.328Z,2.16
2022-11-23T14:13:31.746Z,2.18
2022-11-23T14:15:03.050Z,2.29
2022-11-23T14:16:34.484Z,1.97
2022-11-23T14:18:05.880Z,2.29
2022-11-23T14:19:37.388Z,2.50
2022-11-23T14:21:08.871Z,2.31
2022-11-23T14:22:40.342Z,2.54
2022-11-23T14:24:15.684Z,3.56
2022-11-23T14:25:47.301Z,3.17
2022-11-23T14:27:45.647Z,2.48
2022-11-23T14:29:17.958Z,2.18
2022-11-23T14:30:49.572Z,2.00
2022-11-23T14:32:21.018Z,2.10
2022-11-23T14:33:52.539Z,2.07
2022-11-23T14:35:23.877Z,2.33
2022-11-23T14:36:55.314Z,2.11
2022-11-23T14:38:32.016Z,2.22
2022-11-23T14:40:05.023Z,2.21
2022-11-23T14:41:36.512Z,2.23
2022-11-23T14:43:07.824Z,2.12
2022-11-23T14:44:39.216Z,2.23
2022-11-23T14:46:10.766Z,2.44
2022-11-23T14:47:47.678Z,2.29
2022-11-23T14:49:18.983Z,1.97
2022-11-23T14:51:11.532Z,2.00
2022-11-23T14:52:43.100Z,2.08
2022-11-23T14:54:14.411Z,2.28
2022-11-23T14:55:45.983Z,2.30
2022-11-23T14:57:17.242Z,2.08
2022-11-23T14:58:48.978Z,2.18
2022-11-23T15:00:20.279Z,2.34
2022-11-23T15:01:51.610Z,2.95
2022-11-23T15:03:49.828Z,2.43
2022-11-23T15:05:27.029Z,2.09
2022-11-23T15:06:58.632Z,2.19
2022-11-23T15:08:30.031Z,2.03
2022-11-23T15:10:01.450Z,2.56
2022-11-23T15:11:32.972Z,2.28
2022-11-23T15:13:04.237Z,2.25
2022-11-23T15:14:35.818Z,2.26
2022-11-23T15:16:07.516Z,2.15
2022-11-23T15:17:38.912Z,2.23
2022-11-23T15:19:10.394Z,2.17
2022-11-23T15:20:41.969Z,2.17
2022-11-23T15:22:13.368Z,2.36
2022-11-23T15:23:44.885Z,2.23
2022-11-23T15:25:16.423Z,1.90
2022-11-23T15:26:49.118Z,2.05
2022-11-23T15:28:20.839Z,1.97
2022-11-23T15:29:52.650Z,2.10
2022-11-23T15:31:24.236Z,2.01
2022-11-23T15:32:55.612Z,2.04
2022-11-23T15:34:27.089Z,1.92
2022-11-23T15:35:58.486Z,1.89
2022-11-23T15:37:29.777Z,1.92
2022-11-23T15:39:01.304Z,1.83
2022-11-23T15:40:32.612Z,1.97
2022-11-23T15:42:04.067Z,1.98
2022-11-23T15:43:35.628Z,1.94
2022-11-23T15:45:07.012Z,1.64
2022-11-23T15:47:18.567Z,1.91
2022-11-23T15:48:49.992Z,1.92
2022-11-23T15:50:21.285Z,2.01
2022-11-23T15:51:52.711Z,1.93
2022-11-23T15:53:24.103Z,2.24
2022-11-23T15:54:55.482Z,1.87
2022-11-23T15:56:26.959Z,1.69
2022-11-23T15:57:59.090Z,1.90
2022-11-23T15:59:30.519Z,2.01
2022-11-23T16:01:06.639Z,1.94
2022-11-23T16:02:38.596Z,1.61
2022-11-23T16:04:09.864Z,1.63
2022-11-23T16:05:41.346Z,1.85
2022-11-23T16:07:14.003Z,1.71
2022-11-23T16:08:46.316Z,1.94
2022-11-23T16:10:17.788Z,1.74
2022-11-23T16:11:49.171Z,1.94
2022-11-23T16:13:20.561Z,1.91
2022-11-23T16:14:51.884Z,1.68
2022-11-23T16:16:23.343Z,1.69
2022-11-23T16:17:55.113Z,1.93
2022-11-23T16:19:26.425Z,1.99
2022-11-23T16:20:57.854Z,1.64
2022-11-23T16:22:29.138Z,1.93
2022-11-23T16:24:00.633Z,1.77
2022-11-23T16:25:31.967Z,1.79
2022-11-23T16:27:03.265Z,1.94
2022-11-23T16:28:34.619Z,2.00
2022-11-23T16:30:06.199Z,1.84
2022-11-23T16:31:37.525Z,2.11
2022-11-23T16:33:08.830Z,2.96
2022-11-23T16:34:40.226Z,2.56
2022-11-23T16:36:11.690Z,1.95
2022-11-23T16:37:42.947Z,1.78
2022-11-23T16:39:14.209Z,1.76
2022-11-23T16:40:46.804Z,1.80
2022-11-23T16:42:18.217Z,1.83
2022-11-23T16:43:49.568Z,1.71
2022-11-23T16:45:20.866Z,1.84
2022-11-23T16:46:52.755Z,1.73
2022-11-23T16:48:24.114Z,1.62
2022-11-23T16:49:55.520Z,1.82
2022-11-23T16:51:26.946Z,2.09
2022-11-23T16:52:58.331Z,2.10
2022-11-23T16:54:29.881Z,1.90
2022-11-23T16:56:01.303Z,2.10
2022-11-23T16:57:32.655Z,2.04
2022-11-23T16:59:03.996Z,1.76
2022-11-23T17:00:40.398Z,1.85
2022-11-23T17:02:11.835Z,1.94
2022-11-23T17:03:43.346Z,1.85
2022-11-23T17:05:14.701Z,1.90
2022-11-23T17:06:45.997Z,1.68
2022-11-23T17:08:23.119Z,1.56
2022-11-23T17:09:55.302Z,1.90
2022-11-23T17:11:26.792Z,2.16
2022-11-23T17:12:58.118Z,2.21
2022-11-23T17:14:29.916Z,1.77
2022-11-23T17:16:01.257Z,1.89
2022-11-23T17:17:32.958Z,1.80
2022-11-23T17:19:04.342Z,2.16
2022-11-23T17:20:35.796Z,1.73
2022-11-23T17:22:07.089Z,1.89
2022-11-23T17:23:38.411Z,2.09
2022-11-23T17:25:14.485Z,2.03
2022-11-23T17:26:46.671Z,2.10
2022-11-23T17:28:17.919Z,2.22
2022-11-23T17:29:49.204Z,1.90
2022-11-23T17:31:20.597Z,2.33
2022-11-23T17:32:51.987Z,2.09
2022-11-23T17:34:23.486Z,1.94
2022-11-23T17:35:54.776Z,2.00
2022-11-23T17:37:26.136Z,1.88
2022-11-23T17:38:57.443Z,2.08
2022-11-23T17:40:33.838Z,1.90
2022-11-23T17:42:05.391Z,2.26
2022-11-23T17:43:49.843Z,2.37
2022-11-23T17:45:21.093Z,2.39
2022-11-23T17:46:52.387Z,2.07
2022-11-23T17:48:23.853Z,2.21
2022-11-23T17:49:55.194Z,2.19
2022-11-23T17:51:28.003Z,2.17
2022-11-23T17:53:04.337Z,1.89
2022-11-23T17:54:35.718Z,1.89
2022-11-23T17:56:07.249Z,2.24
2022-11-23T17:57:38.457Z,2.39
2022-11-23T17:59:10.135Z,2.48
2022-11-23T18:00:41.886Z,2.06
2022-11-23T18:02:13.087Z,2.34
2022-11-23T18:03:44.521Z,2.10
2022-11-23T18:05:21.246Z,1.88
2022-11-23T18:06:53.305Z,2.42
2022-11-23T18:08:24.541Z,1.95
2022-11-23T18:09:55.903Z,2.11
2022-11-23T18:11:27.176Z,1.89
2022-11-23T18:14:04.580Z,1.92
2022-11-23T18:15:36.381Z,1.82
2022-11-23T18:17:08.133Z,1.61
2022-11-23T18:18:39.995Z,2.05
2022-11-23T18:20:11.383Z,1.71
2022-11-23T18:21:43.838Z,1.79
2022-11-23T18:23:20.515Z,1.80
2022-11-23T18:24:53.193Z,1.79
2022-11-23T18:26:24.875Z,1.67
2022-11-23T18:27:56.059Z,1.69
2022-11-23T18:29:27.361Z,1.41
2022-11-23T18:32:08.860Z,1.55
2022-11-23T18:33:42.192Z,1.62
2022-11-23T18:35:14.538Z,1.43
2022-11-23T18:36:45.946Z,1.33
2022-11-23T18:38:19.303Z,1.39
2022-11-23T18:40:01.690Z,1.33
2022-11-23T18:41:36.129Z,1.49
2022-11-23T18:43:18.912Z,1.76
2022-11-23T18:44:53.132Z,1.67
2022-11-23T18:46:27.340Z,1.67
2022-11-23T18:48:04.756Z,1.71
2022-11-23T18:49:41.081Z,1.79
2022-11-23T18:51:17.571Z,1.59
2022-11-23T18:52:50.452Z,1.68
2022-11-23T18:54:21.816Z,1.57
2022-11-23T18:55:57.648Z,1.61
2022-11-23T18:57:32.162Z,1.73
2022-11-23T18:59:03.732Z,1.66
2022-11-23T19:00:34.950Z,1.66
2022-11-23T19:02:06.579Z,1.96
2022-11-23T19:03:38.507Z,1.89
2022-11-23T19:05:10.033Z,1.76
2022-11-23T19:06:41.705Z,1.88
2022-11-23T19:08:13.179Z,1.91
2022-11-23T19:09:45.218Z,1.75
2022-11-23T19:11:21.893Z,1.64
2022-11-23T19:12:53.563Z,1.98
2022-11-23T19:16:22.634Z,1.87
2022-11-23T19:17:54.971Z,1.84
2022-11-23T19:19:26.722Z,1.68
2022-11-23T19:20:58.819Z,1.65
2022-11-23T19:22:52.724Z,1.75
2022-11-23T19:24:25.089Z,1.87
2022-11-23T19:25:56.691Z,1.58
2022-11-23T19:27:28.335Z,1.96
2022-11-23T19:29:00.203Z,2.76
2022-11-23T19:30:31.869Z,1.78
2022-11-23T19:32:03.420Z,1.64
2022-11-23T19:33:35.006Z,1.73
2022-11-23T19:35:06.567Z,1.45
2022-11-23T19:36:47.958Z,1.63
2022-11-23T19:38:19.492Z,1.65
2022-11-23T19:39:51.340Z,1.77
2022-11-23T19:41:30.550Z,1.75
2022-11-23T19:43:02.831Z,1.67
2022-11-23T19:44:34.484Z,1.75
2022-11-23T19:46:06.200Z,1.61
2022-11-23T19:47:37.818Z,1.88
2022-11-23T19:49:09.587Z,2.14
2022-11-23T19:50:41.193Z,1.65
2022-11-23T19:52:12.573Z,1.37
2022-11-23T19:53:43.988Z,1.83
2022-11-23T19:55:15.499Z,1.57
2022-11-23T19:56:47.017Z,2.00
2022-11-23T19:58:18.736Z,1.69
2022-11-23T19:59:50.518Z,1.81
2022-11-23T20:01:22.428Z,1.65
2022-11-23T20:02:54.243Z,1.80
2022-11-23T20:04:25.593Z,1.94
2022-11-23T20:05:56.937Z,1.71
2022-11-23T20:07:28.459Z,1.73
2022-11-23T20:08:59.916Z,1.75
2022-11-23T20:10:31.285Z,1.80
2022-11-23T20:12:02.756Z,1.85
2022-11-23T20:13:35.651Z,2.11
2022-11-23T20:15:07.336Z,1.94
2022-11-23T20:16:39.078Z,2.13
2022-11-23T20:18:10.398Z,1.90
2022-11-23T20:19:42.039Z,2.09
2022-11-23T20:21:13.294Z,2.11
2022-11-23T20:22:44.806Z,2.04
2022-11-23T20:24:16.269Z,2.03
2022-11-23T20:25:47.663Z,1.96
2022-11-23T20:27:32.138Z,2.07
2022-11-23T20:29:03.639Z,1.93
2022-11-23T20:30:45.372Z,1.85
2022-11-23T20:32:16.928Z,2.07
2022-11-23T20:33:58.417Z,2.01
2022-11-23T20:35:29.983Z,2.01
2022-11-23T20:37:01.812Z,2.39
2022-11-23T20:38:38.465Z,2.30
2022-11-23T20:40:09.926Z,2.38
2022-11-23T20:41:42.418Z,2.97
2022-11-23T20:43:13.974Z,3.55